Aérodrome :
LOGIN :

S'inscrire | Disclaimer

   EN    FR    IT 

 










Légende :    VFR   VFR Marginal   IFR   IFR Intensif   IFR Très Intensif
Visi : 
Plafond : 
>= 8 km
>= 3000ft
5 à 8 km
1000 à 3000 ft
1500m à 5 km
500 à 1000 ft
800 à 1500m
200 à 500 ft
< 800m
< 200 ft
Symboles :   Orages  Brouillard  Fortes neiges  Fortes précipitations  Vent > 20 kt
SIGMETs :   Divers  Orages  Givrage  Turbulence  Onde Orograph.  Cendres Volcan.







- Altitude de l'aérodrome : 14 ft
- Code IATA : BRE


EDDW - Bremen Neuenland

DERNIER METAR :
  • 192150Z 22005KT 9999 SCT040 SCT150 11/10 Q1018

METARs EXPIRÉS :
  • 192120Z 23004KT 9999 FEW040 SCT150 10/09 Q1018
  • 192050Z 24003KT 9999 FEW040 SCT150 10/09 Q1018 NOSIG
  • 192020Z 25004KT 9999 FEW020 BKN050 11/10 Q1018 NOSIG
  • 191950Z 23005KT 9999 FEW020 BKN060 11/10 Q1018 NOSIG
  • 191920Z 25003KT 9999 FEW020 BKN060 11/10 Q1018 NOSIG

TAF TAF EDDW
Valide du 19 à 18h jusqu'au 20 à 18h UTC


191700Z 1918/2018 25004KT 9999 FEW030
PROB30
TEMPO 1918/1920 SHRA BKN020CB
BECMG 2002/2005 BKN013
TEMPO 2003/2009 4500 -DZRA BKN008
BECMG 2009/2011 26009KT BKN030
BECMG 2016/2018 22004KT
Pas de NOTAMs connus pour ce terrain.



MET'MAP, la Météo Aéronautique d'un coup d'oeil ! - Copyright ORBIFLY Décembre 2007 - Disclaimer

ORBIFLY MET'MAP TEAM :

Programmation & Développement : Alexandra Zaïnal
Conception & Développement : Baudouin d'Aumeries
Co-Programmation & Développement : Marc-Olivier Méhu
Soutien technique & logistique : Manuel Goepfert

Contact : metmap@orbifly.com




SOURCES & CREDITS :

   NOAA